sensor_id;sensor_type;location;lat;lon;timestamp;P1;durP1;ratioP1;P2;durP2;ratioP2
75793;SDS011;64418;47.536;19.074;2022-12-18T00:00:07;30.70;;;11.00;;
75793;SDS011;64418;47.536;19.074;2022-12-18T00:02:35;42.55;;;14.40;;
75793;SDS011;64418;47.536;19.074;2022-12-18T00:05:00;42.92;;;13.70;;
75793;SDS011;64418;47.536;19.074;2022-12-18T00:07:26;36.53;;;14.87;;
75793;SDS011;64418;47.536;19.074;2022-12-18T00:09:53;40.15;;;14.52;;
75793;SDS011;64418;47.536;19.074;2022-12-18T00:12:20;36.05;;;14.10;;
75793;SDS011;64418;47.536;19.074;2022-12-18T00:14:47;36.70;;;13.57;;
75793;SDS011;64418;47.536;19.074;2022-12-18T00:17:13;40.90;;;14.33;;
75793;SDS011;64418;47.536;19.074;2022-12-18T00:19:40;36.10;;;13.33;;
75793;SDS011;64418;47.536;19.074;2022-12-18T00:22:06;37.08;;;13.75;;
75793;SDS011;64418;47.536;19.074;2022-12-18T00:24:31;34.78;;;13.60;;
75793;SDS011;64418;47.536;19.074;2022-12-18T00:26:57;34.53;;;13.33;;
75793;SDS011;64418;47.536;19.074;2022-12-18T00:29:23;36.88;;;13.77;;
75793;SDS011;64418;47.536;19.074;2022-12-18T00:31:49;35.70;;;13.17;;
75793;SDS011;64418;47.536;19.074;2022-12-18T00:34:15;30.95;;;12.18;;
75793;SDS011;64418;47.536;19.074;2022-12-18T00:36:43;30.15;;;11.73;;
75793;SDS011;64418;47.536;19.074;2022-12-18T00:39:09;37.83;;;13.33;;
75793;SDS011;64418;47.536;19.074;2022-12-18T00:41:36;33.00;;;12.77;;
75793;SDS011;64418;47.536;19.074;2022-12-18T00:44:02;33.88;;;12.98;;
75793;SDS011;64418;47.536;19.074;2022-12-18T00:46:28;36.10;;;13.57;;
75793;SDS011;64418;47.536;19.074;2022-12-18T00:48:55;34.85;;;13.50;;
75793;SDS011;64418;47.536;19.074;2022-12-18T00:51:21;34.63;;;12.70;;
75793;SDS011;64418;47.536;19.074;2022-12-18T00:53:48;36.03;;;12.43;;
75793;SDS011;64418;47.536;19.074;2022-12-18T00:56:14;39.03;;;13.23;;
75793;SDS011;64418;47.536;19.074;2022-12-18T00:58:39;30.03;;;12.80;;
75793;SDS011;64418;47.536;19.074;2022-12-18T01:01:05;40.03;;;14.85;;
75793;SDS011;64418;47.536;19.074;2022-12-18T01:03:31;36.10;;;12.23;;
75793;SDS011;64418;47.536;19.074;2022-12-18T01:05:57;37.95;;;11.75;;
75793;SDS011;64418;47.536;19.074;2022-12-18T01:08:23;40.05;;;13.35;;
75793;SDS011;64418;47.536;19.074;2022-12-18T01:10:51;33.33;;;12.60;;
75793;SDS011;64418;47.536;19.074;2022-12-18T01:13:16;32.03;;;11.77;;
75793;SDS011;64418;47.536;19.074;2022-12-18T01:15:47;34.13;;;13.62;;
75793;SDS011;64418;47.536;19.074;2022-12-18T01:18:13;37.08;;;13.68;;
75793;SDS011;64418;47.536;19.074;2022-12-18T01:20:39;33.43;;;13.00;;
75793;SDS011;64418;47.536;19.074;2022-12-18T01:23:05;30.90;;;12.45;;
75793;SDS011;64418;47.536;19.074;2022-12-18T01:25:31;35.40;;;13.93;;
75793;SDS011;64418;47.536;19.074;2022-12-18T01:27:58;38.80;;;13.50;;
75793;SDS011;64418;47.536;19.074;2022-12-18T01:30:23;34.45;;;12.77;;
75793;SDS011;64418;47.536;19.074;2022-12-18T01:32:49;35.92;;;13.55;;
75793;SDS011;64418;47.536;19.074;2022-12-18T01:35:15;35.57;;;14.03;;
75793;SDS011;64418;47.536;19.074;2022-12-18T01:37:40;38.38;;;13.93;;
75793;SDS011;64418;47.536;19.074;2022-12-18T01:40:07;38.80;;;13.70;;
75793;SDS011;64418;47.536;19.074;2022-12-18T01:42:33;35.42;;;12.73;;
75793;SDS011;64418;47.536;19.074;2022-12-18T01:45:02;32.83;;;13.27;;
75793;SDS011;64418;47.536;19.074;2022-12-18T01:47:32;34.42;;;13.27;;
75793;SDS011;64418;47.536;19.074;2022-12-18T01:50:03;30.42;;;12.32;;
75793;SDS011;64418;47.536;19.074;2022-12-18T01:52:32;38.83;;;13.20;;
75793;SDS011;64418;47.536;19.074;2022-12-18T01:54:59;33.10;;;12.35;;
75793;SDS011;64418;47.536;19.074;2022-12-18T01:57:26;32.17;;;12.97;;
75793;SDS011;64418;47.536;19.074;2022-12-18T01:59:55;32.40;;;13.50;;
75793;SDS011;64418;47.536;19.074;2022-12-18T02:02:27;34.42;;;12.73;;
75793;SDS011;64418;47.536;19.074;2022-12-18T02:04:54;35.85;;;13.13;;
75793;SDS011;64418;47.536;19.074;2022-12-18T02:07:20;38.00;;;13.13;;
75793;SDS011;64418;47.536;19.074;2022-12-18T02:09:53;35.13;;;13.98;;
75793;SDS011;64418;47.536;19.074;2022-12-18T02:12:25;34.25;;;13.38;;
75793;SDS011;64418;47.536;19.074;2022-12-18T02:14:59;39.42;;;13.98;;
75793;SDS011;64418;47.536;19.074;2022-12-18T02:17:34;35.20;;;13.93;;
75793;SDS011;64418;47.536;19.074;2022-12-18T02:20:06;36.50;;;13.50;;
75793;SDS011;64418;47.536;19.074;2022-12-18T02:22:39;39.00;;;13.07;;
75793;SDS011;64418;47.536;19.074;2022-12-18T02:25:18;38.17;;;14.60;;
75793;SDS011;64418;47.536;19.074;2022-12-18T02:27:55;33.60;;;11.73;;
75793;SDS011;64418;47.536;19.074;2022-12-18T02:30:25;32.37;;;12.03;;
75793;SDS011;64418;47.536;19.074;2022-12-18T02:32:52;37.25;;;13.25;;
75793;SDS011;64418;47.536;19.074;2022-12-18T02:35:20;35.05;;;13.55;;
75793;SDS011;64418;47.536;19.074;2022-12-18T02:37:48;33.47;;;12.95;;
75793;SDS011;64418;47.536;19.074;2022-12-18T02:40:19;42.95;;;13.18;;
75793;SDS011;64418;47.536;19.074;2022-12-18T02:42:47;37.47;;;13.03;;
75793;SDS011;64418;47.536;19.074;2022-12-18T02:45:14;38.83;;;12.90;;
75793;SDS011;64418;47.536;19.074;2022-12-18T02:47:43;34.80;;;13.60;;
75793;SDS011;64418;47.536;19.074;2022-12-18T02:50:13;35.30;;;14.40;;
75793;SDS011;64418;47.536;19.074;2022-12-18T02:52:49;39.65;;;14.10;;
75793;SDS011;64418;47.536;19.074;2022-12-18T02:55:26;31.70;;;12.05;;
75793;SDS011;64418;47.536;19.074;2022-12-18T02:58:03;35.60;;;12.13;;
75793;SDS011;64418;47.536;19.074;2022-12-18T03:00:38;38.23;;;14.23;;
75793;SDS011;64418;47.536;19.074;2022-12-18T03:03:10;34.63;;;13.75;;
75793;SDS011;64418;47.536;19.074;2022-12-18T03:05:41;34.53;;;13.75;;
75793;SDS011;64418;47.536;19.074;2022-12-18T03:08:14;40.03;;;14.40;;
75793;SDS011;64418;47.536;19.074;2022-12-18T03:10:44;32.72;;;13.32;;
75793;SDS011;64418;47.536;19.074;2022-12-18T03:13:15;35.53;;;13.33;;
75793;SDS011;64418;47.536;19.074;2022-12-18T03:15:47;36.20;;;13.00;;
75793;SDS011;64418;47.536;19.074;2022-12-18T03:18:17;39.08;;;13.73;;
75793;SDS011;64418;47.536;19.074;2022-12-18T03:20:46;37.20;;;14.07;;
75793;SDS011;64418;47.536;19.074;2022-12-18T03:23:15;38.75;;;13.70;;
75793;SDS011;64418;47.536;19.074;2022-12-18T03:25:45;38.40;;;13.07;;
75793;SDS011;64418;47.536;19.074;2022-12-18T03:28:14;38.38;;;13.38;;
75793;SDS011;64418;47.536;19.074;2022-12-18T03:30:43;37.63;;;13.80;;
75793;SDS011;64418;47.536;19.074;2022-12-18T03:33:13;33.83;;;13.48;;
75793;SDS011;64418;47.536;19.074;2022-12-18T03:35:43;35.00;;;14.52;;
75793;SDS011;64418;47.536;19.074;2022-12-18T03:38:09;37.70;;;14.00;;
75793;SDS011;64418;47.536;19.074;2022-12-18T03:40:38;36.13;;;14.05;;
75793;SDS011;64418;47.536;19.074;2022-12-18T03:43:11;37.63;;;13.00;;
75793;SDS011;64418;47.536;19.074;2022-12-18T03:45:46;36.38;;;12.50;;
75793;SDS011;64418;47.536;19.074;2022-12-18T03:48:21;38.17;;;13.23;;
75793;SDS011;64418;47.536;19.074;2022-12-18T03:50:53;41.07;;;15.50;;
75793;SDS011;64418;47.536;19.074;2022-12-18T03:53:25;35.22;;;12.68;;
75793;SDS011;64418;47.536;19.074;2022-12-18T03:55:58;39.60;;;14.27;;
75793;SDS011;64418;47.536;19.074;2022-12-18T03:58:25;39.50;;;16.67;;
75793;SDS011;64418;47.536;19.074;2022-12-18T04:00:53;43.15;;;14.27;;
75793;SDS011;64418;47.536;19.074;2022-12-18T04:03:24;39.40;;;13.17;;
75793;SDS011;64418;47.536;19.074;2022-12-18T04:05:51;37.55;;;14.60;;
75793;SDS011;64418;47.536;19.074;2022-12-18T04:08:19;37.70;;;14.07;;
75793;SDS011;64418;47.536;19.074;2022-12-18T04:10:47;40.38;;;14.15;;
75793;SDS011;64418;47.536;19.074;2022-12-18T04:13:13;42.15;;;13.40;;
75793;SDS011;64418;47.536;19.074;2022-12-18T04:15:46;35.20;;;12.13;;
75793;SDS011;64418;47.536;19.074;2022-12-18T04:18:12;36.15;;;14.05;;
75793;SDS011;64418;47.536;19.074;2022-12-18T04:20:40;39.30;;;15.00;;
75793;SDS011;64418;47.536;19.074;2022-12-18T04:23:06;40.47;;;13.90;;
75793;SDS011;64418;47.536;19.074;2022-12-18T04:25:31;40.87;;;13.10;;
75793;SDS011;64418;47.536;19.074;2022-12-18T04:27:57;40.28;;;13.40;;
75793;SDS011;64418;47.536;19.074;2022-12-18T04:30:23;41.42;;;14.40;;
75793;SDS011;64418;47.536;19.074;2022-12-18T04:32:49;37.10;;;14.07;;
75793;SDS011;64418;47.536;19.074;2022-12-18T04:35:14;38.70;;;13.27;;
75793;SDS011;64418;47.536;19.074;2022-12-18T04:37:42;32.45;;;13.25;;
75793;SDS011;64418;47.536;19.074;2022-12-18T04:40:08;31.70;;;14.00;;
75793;SDS011;64418;47.536;19.074;2022-12-18T04:42:34;40.05;;;13.38;;
75793;SDS011;64418;47.536;19.074;2022-12-18T04:44:59;35.27;;;13.00;;
75793;SDS011;64418;47.536;19.074;2022-12-18T04:47:26;35.92;;;12.95;;
75793;SDS011;64418;47.536;19.074;2022-12-18T04:49:52;45.90;;;14.43;;
75793;SDS011;64418;47.536;19.074;2022-12-18T04:52:18;32.97;;;12.68;;
75793;SDS011;64418;47.536;19.074;2022-12-18T04:54:44;34.37;;;13.50;;
75793;SDS011;64418;47.536;19.074;2022-12-18T04:57:10;38.42;;;14.15;;
75793;SDS011;64418;47.536;19.074;2022-12-18T04:59:36;41.97;;;14.90;;
75793;SDS011;64418;47.536;19.074;2022-12-18T05:02:01;33.08;;;13.38;;
75793;SDS011;64418;47.536;19.074;2022-12-18T05:04:28;30.75;;;12.88;;
75793;SDS011;64418;47.536;19.074;2022-12-18T05:06:54;37.63;;;13.83;;
75793;SDS011;64418;47.536;19.074;2022-12-18T05:09:20;36.90;;;13.10;;
75793;SDS011;64418;47.536;19.074;2022-12-18T05:11:47;36.07;;;12.80;;
75793;SDS011;64418;47.536;19.074;2022-12-18T05:14:12;40.67;;;13.13;;
75793;SDS011;64418;47.536;19.074;2022-12-18T05:16:38;35.27;;;12.63;;
75793;SDS011;64418;47.536;19.074;2022-12-18T05:19:03;36.08;;;13.60;;
75793;SDS011;64418;47.536;19.074;2022-12-18T05:21:29;38.83;;;13.07;;
75793;SDS011;64418;47.536;19.074;2022-12-18T05:23:56;37.72;;;14.63;;
75793;SDS011;64418;47.536;19.074;2022-12-18T05:26:21;39.47;;;12.30;;
75793;SDS011;64418;47.536;19.074;2022-12-18T05:28:49;36.92;;;13.77;;
75793;SDS011;64418;47.536;19.074;2022-12-18T05:31:14;34.23;;;12.53;;
75793;SDS011;64418;47.536;19.074;2022-12-18T05:33:40;37.38;;;13.38;;
75793;SDS011;64418;47.536;19.074;2022-12-18T05:36:07;38.28;;;14.77;;
75793;SDS011;64418;47.536;19.074;2022-12-18T05:38:34;35.97;;;13.48;;
75793;SDS011;64418;47.536;19.074;2022-12-18T05:41:01;40.75;;;13.65;;
75793;SDS011;64418;47.536;19.074;2022-12-18T05:43:28;34.17;;;12.17;;
75793;SDS011;64418;47.536;19.074;2022-12-18T05:45:55;36.42;;;13.18;;
75793;SDS011;64418;47.536;19.074;2022-12-18T05:48:21;36.42;;;13.18;;
75793;SDS011;64418;47.536;19.074;2022-12-18T05:50:47;35.38;;;13.62;;
75793;SDS011;64418;47.536;19.074;2022-12-18T05:53:15;37.57;;;13.50;;
75793;SDS011;64418;47.536;19.074;2022-12-18T05:55:42;40.63;;;15.20;;
75793;SDS011;64418;47.536;19.074;2022-12-18T05:58:09;39.88;;;13.57;;
75793;SDS011;64418;47.536;19.074;2022-12-18T06:00:37;36.30;;;13.80;;
75793;SDS011;64418;47.536;19.074;2022-12-18T06:03:05;32.70;;;13.07;;
75793;SDS011;64418;47.536;19.074;2022-12-18T06:05:34;36.97;;;13.77;;
75793;SDS011;64418;47.536;19.074;2022-12-18T06:08:00;39.60;;;14.77;;
75793;SDS011;64418;47.536;19.074;2022-12-18T06:10:26;35.78;;;13.93;;
75793;SDS011;64418;47.536;19.074;2022-12-18T06:12:52;39.38;;;15.15;;
75793;SDS011;64418;47.536;19.074;2022-12-18T06:15:18;38.40;;;14.87;;
75793;SDS011;64418;47.536;19.074;2022-12-18T06:17:43;36.72;;;13.20;;
75793;SDS011;64418;47.536;19.074;2022-12-18T06:20:10;40.10;;;14.43;;
75793;SDS011;64418;47.536;19.074;2022-12-18T06:22:36;40.95;;;14.57;;
75793;SDS011;64418;47.536;19.074;2022-12-18T06:25:02;32.08;;;13.23;;
75793;SDS011;64418;47.536;19.074;2022-12-18T06:27:29;41.92;;;13.95;;
75793;SDS011;64418;47.536;19.074;2022-12-18T06:29:55;35.67;;;13.93;;
75793;SDS011;64418;47.536;19.074;2022-12-18T06:32:22;39.83;;;14.35;;
75793;SDS011;64418;47.536;19.074;2022-12-18T06:34:49;29.37;;;12.27;;
75793;SDS011;64418;47.536;19.074;2022-12-18T06:37:17;41.13;;;14.03;;
75793;SDS011;64418;47.536;19.074;2022-12-18T06:39:44;43.17;;;15.40;;
75793;SDS011;64418;47.536;19.074;2022-12-18T06:42:10;38.38;;;14.70;;
75793;SDS011;64418;47.536;19.074;2022-12-18T06:44:36;39.42;;;13.85;;
75793;SDS011;64418;47.536;19.074;2022-12-18T06:47:02;41.95;;;14.63;;
75793;SDS011;64418;47.536;19.074;2022-12-18T06:49:28;35.60;;;13.07;;
75793;SDS011;64418;47.536;19.074;2022-12-18T06:51:53;42.65;;;15.02;;
75793;SDS011;64418;47.536;19.074;2022-12-18T06:54:21;39.70;;;14.33;;
75793;SDS011;64418;47.536;19.074;2022-12-18T06:56:47;40.53;;;13.87;;
75793;SDS011;64418;47.536;19.074;2022-12-18T06:59:12;40.17;;;13.73;;
75793;SDS011;64418;47.536;19.074;2022-12-18T07:01:39;38.72;;;14.73;;
75793;SDS011;64418;47.536;19.074;2022-12-18T07:04:04;54.30;;;21.23;;
75793;SDS011;64418;47.536;19.074;2022-12-18T07:06:30;61.05;;;20.25;;
75793;SDS011;64418;47.536;19.074;2022-12-18T07:08:56;38.10;;;16.15;;
75793;SDS011;64418;47.536;19.074;2022-12-18T07:11:24;41.90;;;14.27;;
75793;SDS011;64418;47.536;19.074;2022-12-18T07:13:50;35.35;;;12.25;;
75793;SDS011;64418;47.536;19.074;2022-12-18T07:16:18;39.53;;;14.25;;
75793;SDS011;64418;47.536;19.074;2022-12-18T07:18:45;43.50;;;14.15;;
75793;SDS011;64418;47.536;19.074;2022-12-18T07:21:14;35.75;;;13.45;;
75793;SDS011;64418;47.536;19.074;2022-12-18T07:23:43;43.90;;;16.13;;
75793;SDS011;64418;47.536;19.074;2022-12-18T07:26:09;52.70;;;18.33;;
75793;SDS011;64418;47.536;19.074;2022-12-18T07:28:39;34.58;;;13.93;;
75793;SDS011;64418;47.536;19.074;2022-12-18T07:31:06;40.87;;;13.80;;
75793;SDS011;64418;47.536;19.074;2022-12-18T07:33:33;41.97;;;13.90;;
75793;SDS011;64418;47.536;19.074;2022-12-18T07:35:59;38.47;;;15.55;;
75793;SDS011;64418;47.536;19.074;2022-12-18T07:38:26;37.70;;;14.02;;
75793;SDS011;64418;47.536;19.074;2022-12-18T07:40:51;37.23;;;14.47;;
75793;SDS011;64418;47.536;19.074;2022-12-18T07:43:17;38.50;;;12.80;;
75793;SDS011;64418;47.536;19.074;2022-12-18T07:45:44;32.07;;;13.03;;
75793;SDS011;64418;47.536;19.074;2022-12-18T07:48:10;36.33;;;13.32;;
75793;SDS011;64418;47.536;19.074;2022-12-18T07:50:36;36.00;;;13.00;;
75793;SDS011;64418;47.536;19.074;2022-12-18T07:53:03;36.42;;;14.20;;
75793;SDS011;64418;47.536;19.074;2022-12-18T07:55:29;34.63;;;13.93;;
75793;SDS011;64418;47.536;19.074;2022-12-18T07:57:56;36.58;;;14.35;;
75793;SDS011;64418;47.536;19.074;2022-12-18T08:00:22;38.30;;;13.88;;
75793;SDS011;64418;47.536;19.074;2022-12-18T08:02:49;37.92;;;15.13;;
75793;SDS011;64418;47.536;19.074;2022-12-18T08:05:16;37.80;;;14.63;;
75793;SDS011;64418;47.536;19.074;2022-12-18T08:07:42;31.30;;;13.98;;
75793;SDS011;64418;47.536;19.074;2022-12-18T08:10:08;39.30;;;14.73;;
75793;SDS011;64418;47.536;19.074;2022-12-18T08:12:34;37.47;;;13.60;;
75793;SDS011;64418;47.536;19.074;2022-12-18T08:14:59;34.43;;;14.03;;
75793;SDS011;64418;47.536;19.074;2022-12-18T08:17:25;49.45;;;21.87;;
75793;SDS011;64418;47.536;19.074;2022-12-18T08:19:52;40.33;;;17.10;;
75793;SDS011;64418;47.536;19.074;2022-12-18T08:22:18;34.90;;;14.77;;
75793;SDS011;64418;47.536;19.074;2022-12-18T08:24:44;34.70;;;15.35;;
75793;SDS011;64418;47.536;19.074;2022-12-18T08:27:10;31.57;;;14.57;;
75793;SDS011;64418;47.536;19.074;2022-12-18T08:29:36;32.38;;;14.87;;
75793;SDS011;64418;47.536;19.074;2022-12-18T08:32:02;32.60;;;14.48;;
75793;SDS011;64418;47.536;19.074;2022-12-18T08:34:27;39.37;;;17.57;;
75793;SDS011;64418;47.536;19.074;2022-12-18T08:36:55;38.15;;;16.08;;
75793;SDS011;64418;47.536;19.074;2022-12-18T08:39:21;35.95;;;15.77;;
75793;SDS011;64418;47.536;19.074;2022-12-18T08:41:46;32.00;;;14.70;;
75793;SDS011;64418;47.536;19.074;2022-12-18T08:44:13;35.90;;;15.32;;
75793;SDS011;64418;47.536;19.074;2022-12-18T08:46:39;33.63;;;15.02;;
75793;SDS011;64418;47.536;19.074;2022-12-18T08:49:08;32.53;;;15.55;;
75793;SDS011;64418;47.536;19.074;2022-12-18T08:51:35;35.45;;;16.45;;
75793;SDS011;64418;47.536;19.074;2022-12-18T08:54:04;38.70;;;16.57;;
75793;SDS011;64418;47.536;19.074;2022-12-18T08:56:30;34.95;;;16.17;;
75793;SDS011;64418;47.536;19.074;2022-12-18T08:58:56;37.03;;;16.60;;
75793;SDS011;64418;47.536;19.074;2022-12-18T09:01:22;38.92;;;18.35;;
75793;SDS011;64418;47.536;19.074;2022-12-18T09:03:48;37.77;;;16.73;;
75793;SDS011;64418;47.536;19.074;2022-12-18T09:06:15;39.15;;;17.58;;
75793;SDS011;64418;47.536;19.074;2022-12-18T09:08:42;38.13;;;17.25;;
75793;SDS011;64418;47.536;19.074;2022-12-18T09:11:13;40.05;;;17.15;;
75793;SDS011;64418;47.536;19.074;2022-12-18T09:13:40;34.97;;;16.87;;
75793;SDS011;64418;47.536;19.074;2022-12-18T09:16:06;32.97;;;16.70;;
75793;SDS011;64418;47.536;19.074;2022-12-18T09:18:32;37.47;;;17.30;;
75793;SDS011;64418;47.536;19.074;2022-12-18T09:20:58;34.65;;;17.23;;
75793;SDS011;64418;47.536;19.074;2022-12-18T09:23:24;36.57;;;17.10;;
75793;SDS011;64418;47.536;19.074;2022-12-18T09:25:50;35.83;;;17.77;;
75793;SDS011;64418;47.536;19.074;2022-12-18T09:28:19;36.95;;;17.73;;
75793;SDS011;64418;47.536;19.074;2022-12-18T09:30:46;35.53;;;17.73;;
75793;SDS011;64418;47.536;19.074;2022-12-18T09:33:13;36.88;;;17.40;;
75793;SDS011;64418;47.536;19.074;2022-12-18T09:35:40;36.17;;;18.20;;
75793;SDS011;64418;47.536;19.074;2022-12-18T09:38:08;36.10;;;16.35;;
75793;SDS011;64418;47.536;19.074;2022-12-18T09:40:40;36.83;;;18.20;;
75793;SDS011;64418;47.536;19.074;2022-12-18T09:43:10;33.73;;;18.33;;
75793;SDS011;64418;47.536;19.074;2022-12-18T09:45:44;35.42;;;16.77;;
75793;SDS011;64418;47.536;19.074;2022-12-18T09:48:15;38.55;;;17.90;;
75793;SDS011;64418;47.536;19.074;2022-12-18T09:50:47;36.42;;;18.35;;
75793;SDS011;64418;47.536;19.074;2022-12-18T09:53:16;34.83;;;17.80;;
75793;SDS011;64418;47.536;19.074;2022-12-18T09:55:47;32.17;;;16.77;;
75793;SDS011;64418;47.536;19.074;2022-12-18T09:58:16;34.10;;;17.60;;
75793;SDS011;64418;47.536;19.074;2022-12-18T10:00:52;36.05;;;17.50;;
75793;SDS011;64418;47.536;19.074;2022-12-18T10:03:18;34.78;;;16.48;;
75793;SDS011;64418;47.536;19.074;2022-12-18T10:05:46;36.85;;;17.90;;
75793;SDS011;64418;47.536;19.074;2022-12-18T10:08:22;34.40;;;17.10;;
75793;SDS011;64418;47.536;19.074;2022-12-18T10:10:57;39.40;;;20.17;;
75793;SDS011;64418;47.536;19.074;2022-12-18T10:13:30;47.00;;;26.45;;
75793;SDS011;64418;47.536;19.074;2022-12-18T10:16:07;35.03;;;17.73;;
75793;SDS011;64418;47.536;19.074;2022-12-18T10:18:42;33.38;;;16.85;;
75793;SDS011;64418;47.536;19.074;2022-12-18T10:21:26;33.83;;;16.98;;
75793;SDS011;64418;47.536;19.074;2022-12-18T10:23:58;32.87;;;16.37;;
75793;SDS011;64418;47.536;19.074;2022-12-18T10:26:38;30.25;;;15.65;;
75793;SDS011;64418;47.536;19.074;2022-12-18T10:29:06;32.08;;;15.57;;
75793;SDS011;64418;47.536;19.074;2022-12-18T10:31:38;33.88;;;17.00;;
75793;SDS011;64418;47.536;19.074;2022-12-18T10:34:07;31.50;;;16.12;;
75793;SDS011;64418;47.536;19.074;2022-12-18T10:36:35;32.93;;;16.40;;
75793;SDS011;64418;47.536;19.074;2022-12-18T10:39:07;31.15;;;16.02;;
75793;SDS011;64418;47.536;19.074;2022-12-18T10:41:40;30.48;;;16.25;;
75793;SDS011;64418;47.536;19.074;2022-12-18T10:44:10;32.03;;;16.17;;
75793;SDS011;64418;47.536;19.074;2022-12-18T10:46:41;31.20;;;16.45;;
75793;SDS011;64418;47.536;19.074;2022-12-18T10:49:17;30.23;;;16.23;;
75793;SDS011;64418;47.536;19.074;2022-12-18T10:51:45;29.37;;;16.42;;
75793;SDS011;64418;47.536;19.074;2022-12-18T10:54:13;34.53;;;17.13;;
75793;SDS011;64418;47.536;19.074;2022-12-18T10:56:41;31.35;;;16.48;;
75793;SDS011;64418;47.536;19.074;2022-12-18T10:59:08;33.35;;;16.23;;
75793;SDS011;64418;47.536;19.074;2022-12-18T11:01:47;31.87;;;16.92;;
75793;SDS011;64418;47.536;19.074;2022-12-18T11:04:16;31.70;;;16.63;;
75793;SDS011;64418;47.536;19.074;2022-12-18T11:06:52;35.13;;;16.98;;
75793;SDS011;64418;47.536;19.074;2022-12-18T11:09:20;30.50;;;16.40;;
75793;SDS011;64418;47.536;19.074;2022-12-18T11:11:48;31.17;;;17.12;;
75793;SDS011;64418;47.536;19.074;2022-12-18T11:14:15;33.15;;;17.67;;
75793;SDS011;64418;47.536;19.074;2022-12-18T11:16:47;32.10;;;17.10;;
75793;SDS011;64418;47.536;19.074;2022-12-18T11:19:19;34.53;;;17.17;;
75793;SDS011;64418;47.536;19.074;2022-12-18T11:21:53;45.28;;;24.12;;
75793;SDS011;64418;47.536;19.074;2022-12-18T11:24:22;66.97;;;35.85;;
75793;SDS011;64418;47.536;19.074;2022-12-18T11:26:53;61.97;;;33.90;;
75793;SDS011;64418;47.536;19.074;2022-12-18T11:29:23;47.92;;;25.80;;
75793;SDS011;64418;47.536;19.074;2022-12-18T11:32:00;55.00;;;30.40;;
75793;SDS011;64418;47.536;19.074;2022-12-18T11:34:46;45.47;;;23.90;;
75793;SDS011;64418;47.536;19.074;2022-12-18T11:37:15;35.95;;;18.77;;
75793;SDS011;64418;47.536;19.074;2022-12-18T11:39:44;32.95;;;17.77;;
75793;SDS011;64418;47.536;19.074;2022-12-18T11:42:17;31.35;;;17.00;;
75793;SDS011;64418;47.536;19.074;2022-12-18T11:44:48;32.03;;;17.13;;
75793;SDS011;64418;47.536;19.074;2022-12-18T11:47:21;30.80;;;17.60;;
75793;SDS011;64418;47.536;19.074;2022-12-18T11:49:54;30.45;;;16.08;;
75793;SDS011;64418;47.536;19.074;2022-12-18T11:52:25;29.92;;;15.80;;
75793;SDS011;64418;47.536;19.074;2022-12-18T11:54:53;28.55;;;15.65;;
75793;SDS011;64418;47.536;19.074;2022-12-18T11:57:27;27.33;;;15.50;;
75793;SDS011;64418;47.536;19.074;2022-12-18T12:00:01;29.50;;;16.17;;
75793;SDS011;64418;47.536;19.074;2022-12-18T12:05:28;30.80;;;15.57;;
75793;SDS011;64418;47.536;19.074;2022-12-18T12:08:02;29.50;;;15.48;;
75793;SDS011;64418;47.536;19.074;2022-12-18T12:10:41;32.13;;;17.33;;
75793;SDS011;64418;47.536;19.074;2022-12-18T12:13:23;32.83;;;15.98;;
75793;SDS011;64418;47.536;19.074;2022-12-18T12:16:04;29.85;;;16.00;;
75793;SDS011;64418;47.536;19.074;2022-12-18T12:18:43;26.80;;;14.50;;
75793;SDS011;64418;47.536;19.074;2022-12-18T12:21:23;30.37;;;15.32;;
75793;SDS011;64418;47.536;19.074;2022-12-18T12:23:54;39.60;;;21.93;;
75793;SDS011;64418;47.536;19.074;2022-12-18T12:26:26;44.92;;;24.00;;
75793;SDS011;64418;47.536;19.074;2022-12-18T12:28:59;33.33;;;16.62;;
75793;SDS011;64418;47.536;19.074;2022-12-18T12:31:42;33.40;;;16.90;;
75793;SDS011;64418;47.536;19.074;2022-12-18T12:34:32;30.95;;;16.37;;
75793;SDS011;64418;47.536;19.074;2022-12-18T12:37:09;35.17;;;16.50;;
75793;SDS011;64418;47.536;19.074;2022-12-18T12:39:44;31.20;;;15.38;;
75793;SDS011;64418;47.536;19.074;2022-12-18T12:42:14;34.80;;;16.80;;
75793;SDS011;64418;47.536;19.074;2022-12-18T12:44:45;30.65;;;16.12;;
75793;SDS011;64418;47.536;19.074;2022-12-18T12:47:16;35.78;;;16.67;;
75793;SDS011;64418;47.536;19.074;2022-12-18T12:49:47;32.20;;;17.00;;
75793;SDS011;64418;47.536;19.074;2022-12-18T12:52:15;34.38;;;17.85;;
75793;SDS011;64418;47.536;19.074;2022-12-18T12:54:54;34.38;;;16.45;;
75793;SDS011;64418;47.536;19.074;2022-12-18T12:57:21;29.15;;;15.10;;
75793;SDS011;64418;47.536;19.074;2022-12-18T12:59:52;32.08;;;15.82;;
75793;SDS011;64418;47.536;19.074;2022-12-18T13:02:28;31.27;;;15.33;;
75793;SDS011;64418;47.536;19.074;2022-12-18T13:05:01;36.92;;;18.90;;
75793;SDS011;64418;47.536;19.074;2022-12-18T13:07:35;29.67;;;15.52;;
75793;SDS011;64418;47.536;19.074;2022-12-18T13:10:20;32.67;;;15.50;;
75793;SDS011;64418;47.536;19.074;2022-12-18T13:13:06;31.62;;;15.32;;
75793;SDS011;64418;47.536;19.074;2022-12-18T13:15:34;31.17;;;15.17;;
75793;SDS011;64418;47.536;19.074;2022-12-18T13:18:11;66.22;;;24.50;;
75793;SDS011;64418;47.536;19.074;2022-12-18T13:20:50;42.85;;;18.80;;
75793;SDS011;64418;47.536;19.074;2022-12-18T13:23:31;40.97;;;17.35;;
75793;SDS011;64418;47.536;19.074;2022-12-18T13:25:59;40.20;;;18.10;;
75793;SDS011;64418;47.536;19.074;2022-12-18T13:28:52;34.13;;;15.80;;
75793;SDS011;64418;47.536;19.074;2022-12-18T13:34:15;30.83;;;14.07;;
75793;SDS011;64418;47.536;19.074;2022-12-18T13:36:46;31.92;;;14.75;;
75793;SDS011;64418;47.536;19.074;2022-12-18T13:39:22;40.83;;;17.80;;
75793;SDS011;64418;47.536;19.074;2022-12-18T13:41:51;28.27;;;13.77;;
75793;SDS011;64418;47.536;19.074;2022-12-18T13:44:25;31.45;;;13.62;;
75793;SDS011;64418;47.536;19.074;2022-12-18T13:46:56;32.50;;;13.50;;
75793;SDS011;64418;47.536;19.074;2022-12-18T13:49:23;31.65;;;13.40;;
75793;SDS011;64418;47.536;19.074;2022-12-18T13:51:53;34.78;;;15.05;;
75793;SDS011;64418;47.536;19.074;2022-12-18T13:54:21;33.10;;;12.60;;
75793;SDS011;64418;47.536;19.074;2022-12-18T13:56:52;30.37;;;12.68;;
75793;SDS011;64418;47.536;19.074;2022-12-18T13:59:18;34.90;;;13.00;;
75793;SDS011;64418;47.536;19.074;2022-12-18T14:01:47;33.25;;;13.75;;
75793;SDS011;64418;47.536;19.074;2022-12-18T14:04:23;33.92;;;14.48;;
75793;SDS011;64418;47.536;19.074;2022-12-18T14:06:53;33.93;;;13.53;;
75793;SDS011;64418;47.536;19.074;2022-12-18T14:09:24;34.33;;;14.87;;
75793;SDS011;64418;47.536;19.074;2022-12-18T14:11:52;29.83;;;13.15;;
75793;SDS011;64418;47.536;19.074;2022-12-18T14:14:19;32.38;;;13.60;;
75793;SDS011;64418;47.536;19.074;2022-12-18T14:16:45;32.40;;;13.98;;
75793;SDS011;64418;47.536;19.074;2022-12-18T14:19:12;42.23;;;19.63;;
75793;SDS011;64418;47.536;19.074;2022-12-18T14:21:40;40.25;;;19.30;;
75793;SDS011;64418;47.536;19.074;2022-12-18T14:24:14;36.63;;;14.55;;